sensor_id;sensor_type;location;lat;lon;timestamp;P1;durP1;ratioP1;P2;durP2;ratioP2
52542;SDS011;38449;52.696;6.186;2022-08-01T00:01:54;11.00;;;5.50;;
52542;SDS011;38449;52.696;6.186;2022-08-01T00:04:20;7.20;;;5.10;;
52542;SDS011;38449;52.696;6.186;2022-08-01T00:06:45;9.55;;;4.80;;
52542;SDS011;38449;52.696;6.186;2022-08-01T00:09:11;6.45;;;4.93;;
52542;SDS011;38449;52.696;6.186;2022-08-01T00:11:37;5.82;;;4.75;;
52542;SDS011;38449;52.696;6.186;2022-08-01T00:14:03;8.00;;;5.00;;
52542;SDS011;38449;52.696;6.186;2022-08-01T00:16:28;7.68;;;4.95;;
52542;SDS011;38449;52.696;6.186;2022-08-01T00:18:54;8.43;;;5.38;;
52542;SDS011;38449;52.696;6.186;2022-08-01T00:21:20;10.63;;;5.35;;
52542;SDS011;38449;52.696;6.186;2022-08-01T00:23:46;6.95;;;5.15;;
52542;SDS011;38449;52.696;6.186;2022-08-01T00:26:12;7.43;;;4.65;;
52542;SDS011;38449;52.696;6.186;2022-08-01T00:28:38;7.88;;;4.68;;
52542;SDS011;38449;52.696;6.186;2022-08-01T00:31:04;6.40;;;5.10;;
52542;SDS011;38449;52.696;6.186;2022-08-01T00:33:30;10.30;;;4.78;;
52542;SDS011;38449;52.696;6.186;2022-08-01T00:35:55;10.60;;;5.88;;
52542;SDS011;38449;52.696;6.186;2022-08-01T00:38:21;7.68;;;4.82;;
52542;SDS011;38449;52.696;6.186;2022-08-01T00:40:47;6.65;;;5.03;;
52542;SDS011;38449;52.696;6.186;2022-08-01T00:43:13;7.95;;;4.85;;
52542;SDS011;38449;52.696;6.186;2022-08-01T00:45:39;6.78;;;4.70;;
52542;SDS011;38449;52.696;6.186;2022-08-01T00:48:06;7.82;;;4.97;;
52542;SDS011;38449;52.696;6.186;2022-08-01T00:50:32;5.90;;;4.28;;
52542;SDS011;38449;52.696;6.186;2022-08-01T00:52:58;5.88;;;4.00;;
52542;SDS011;38449;52.696;6.186;2022-08-01T00:55:24;7.13;;;3.95;;
52542;SDS011;38449;52.696;6.186;2022-08-01T00:57:51;5.35;;;4.30;;
52542;SDS011;38449;52.696;6.186;2022-08-01T01:00:16;6.65;;;4.22;;
52542;SDS011;38449;52.696;6.186;2022-08-01T01:02:42;4.90;;;3.83;;
52542;SDS011;38449;52.696;6.186;2022-08-01T01:05:09;6.75;;;3.97;;
52542;SDS011;38449;52.696;6.186;2022-08-01T01:07:44;5.50;;;3.97;;
52542;SDS011;38449;52.696;6.186;2022-08-01T01:10:31;5.95;;;3.50;;
52542;SDS011;38449;52.696;6.186;2022-08-01T01:13:05;6.13;;;3.72;;
52542;SDS011;38449;52.696;6.186;2022-08-01T01:18:10;6.70;;;3.85;;
52542;SDS011;38449;52.696;6.186;2022-08-01T01:20:37;7.97;;;4.25;;
52542;SDS011;38449;52.696;6.186;2022-08-01T01:29:00;7.18;;;4.13;;
52542;SDS011;38449;52.696;6.186;2022-08-01T01:32:07;7.95;;;4.05;;
52542;SDS011;38449;52.696;6.186;2022-08-01T01:34:40;5.37;;;4.10;;
52542;SDS011;38449;52.696;6.186;2022-08-01T01:37:10;5.65;;;3.60;;
52542;SDS011;38449;52.696;6.186;2022-08-01T01:39:40;6.32;;;3.53;;
52542;SDS011;38449;52.696;6.186;2022-08-01T01:42:07;6.75;;;3.58;;
52542;SDS011;38449;52.696;6.186;2022-08-01T01:44:34;4.65;;;3.75;;
52542;SDS011;38449;52.696;6.186;2022-08-01T01:47:02;6.72;;;3.63;;
52542;SDS011;38449;52.696;6.186;2022-08-01T01:49:28;5.95;;;4.32;;
52542;SDS011;38449;52.696;6.186;2022-08-01T01:51:56;6.88;;;3.90;;
52542;SDS011;38449;52.696;6.186;2022-08-01T01:54:24;5.28;;;3.85;;
52542;SDS011;38449;52.696;6.186;2022-08-01T01:56:59;7.45;;;4.03;;
52542;SDS011;38449;52.696;6.186;2022-08-01T01:59:27;4.63;;;3.38;;
52542;SDS011;38449;52.696;6.186;2022-08-01T02:01:55;6.88;;;4.20;;
52542;SDS011;38449;52.696;6.186;2022-08-01T02:04:24;5.00;;;3.75;;
52542;SDS011;38449;52.696;6.186;2022-08-01T02:06:52;5.85;;;3.90;;
52542;SDS011;38449;52.696;6.186;2022-08-01T02:09:19;7.30;;;3.90;;
52542;SDS011;38449;52.696;6.186;2022-08-01T02:11:47;5.82;;;4.10;;
52542;SDS011;38449;52.696;6.186;2022-08-01T02:14:14;6.43;;;4.13;;
52542;SDS011;38449;52.696;6.186;2022-08-01T02:16:41;6.38;;;3.53;;
52542;SDS011;38449;52.696;6.186;2022-08-01T02:19:10;3.67;;;2.90;;
52542;SDS011;38449;52.696;6.186;2022-08-01T02:21:40;6.38;;;2.88;;
52542;SDS011;38449;52.696;6.186;2022-08-01T02:24:15;4.82;;;2.42;;
52542;SDS011;38449;52.696;6.186;2022-08-01T02:27:12;2.80;;;2.08;;
52542;SDS011;38449;52.696;6.186;2022-08-01T02:29:43;3.72;;;2.33;;
52542;SDS011;38449;52.696;6.186;2022-08-01T02:32:16;3.50;;;2.40;;
52542;SDS011;38449;52.696;6.186;2022-08-01T02:34:49;2.92;;;2.55;;
52542;SDS011;38449;52.696;6.186;2022-08-01T02:37:17;3.30;;;2.58;;
52542;SDS011;38449;52.696;6.186;2022-08-01T02:39:46;5.93;;;2.70;;
52542;SDS011;38449;52.696;6.186;2022-08-01T02:42:15;4.95;;;2.92;;
52542;SDS011;38449;52.696;6.186;2022-08-01T02:44:43;5.97;;;3.10;;
52542;SDS011;38449;52.696;6.186;2022-08-01T02:47:12;4.93;;;2.83;;
52542;SDS011;38449;52.696;6.186;2022-08-01T02:49:45;4.93;;;3.00;;
52542;SDS011;38449;52.696;6.186;2022-08-01T02:52:13;5.25;;;3.00;;
52542;SDS011;38449;52.696;6.186;2022-08-01T02:54:41;6.05;;;3.28;;
52542;SDS011;38449;52.696;6.186;2022-08-01T02:57:09;5.30;;;2.88;;
52542;SDS011;38449;52.696;6.186;2022-08-01T02:59:36;4.78;;;3.00;;
52542;SDS011;38449;52.696;6.186;2022-08-01T03:02:04;4.15;;;3.50;;
52542;SDS011;38449;52.696;6.186;2022-08-01T03:04:32;4.28;;;3.10;;
52542;SDS011;38449;52.696;6.186;2022-08-01T03:07:00;4.88;;;3.67;;
52542;SDS011;38449;52.696;6.186;2022-08-01T03:09:28;6.45;;;3.33;;
52542;SDS011;38449;52.696;6.186;2022-08-01T03:11:57;5.68;;;3.38;;
52542;SDS011;38449;52.696;6.186;2022-08-01T03:14:25;6.55;;;3.55;;
52542;SDS011;38449;52.696;6.186;2022-08-01T03:16:53;5.50;;;3.33;;
52542;SDS011;38449;52.696;6.186;2022-08-01T03:19:20;6.13;;;3.72;;
52542;SDS011;38449;52.696;6.186;2022-08-01T03:21:49;5.97;;;3.97;;
52542;SDS011;38449;52.696;6.186;2022-08-01T03:24:17;7.70;;;4.20;;
52542;SDS011;38449;52.696;6.186;2022-08-01T03:26:44;5.35;;;3.65;;
52542;SDS011;38449;52.696;6.186;2022-08-01T03:29:21;7.72;;;4.07;;
52542;SDS011;38449;52.696;6.186;2022-08-01T03:31:50;6.38;;;4.25;;
52542;SDS011;38449;52.696;6.186;2022-08-01T03:34:16;6.35;;;3.70;;
52542;SDS011;38449;52.696;6.186;2022-08-01T03:37:06;6.75;;;3.60;;
52542;SDS011;38449;52.696;6.186;2022-08-01T03:39:30;7.22;;;3.40;;
52542;SDS011;38449;52.696;6.186;2022-08-01T03:41:59;4.65;;;3.40;;
52542;SDS011;38449;52.696;6.186;2022-08-01T03:44:31;4.68;;;2.67;;
52542;SDS011;38449;52.696;6.186;2022-08-01T03:47:00;6.72;;;2.80;;
52542;SDS011;38449;52.696;6.186;2022-08-01T03:49:30;4.00;;;2.42;;
52542;SDS011;38449;52.696;6.186;2022-08-01T03:51:58;5.68;;;2.45;;
52542;SDS011;38449;52.696;6.186;2022-08-01T03:54:28;5.03;;;2.55;;
52542;SDS011;38449;52.696;6.186;2022-08-01T03:56:57;5.80;;;2.47;;
52542;SDS011;38449;52.696;6.186;2022-08-01T03:59:24;3.58;;;2.08;;
52542;SDS011;38449;52.696;6.186;2022-08-01T04:01:51;4.00;;;2.20;;
52542;SDS011;38449;52.696;6.186;2022-08-01T04:04:17;5.35;;;2.13;;
52542;SDS011;38449;52.696;6.186;2022-08-01T04:06:43;3.20;;;1.70;;
52542;SDS011;38449;52.696;6.186;2022-08-01T04:09:10;5.60;;;2.30;;
52542;SDS011;38449;52.696;6.186;2022-08-01T04:11:37;5.55;;;2.17;;
52542;SDS011;38449;52.696;6.186;2022-08-01T04:14:02;5.50;;;2.20;;
52542;SDS011;38449;52.696;6.186;2022-08-01T04:16:28;5.68;;;2.38;;
52542;SDS011;38449;52.696;6.186;2022-08-01T04:18:54;4.60;;;2.20;;
52542;SDS011;38449;52.696;6.186;2022-08-01T04:21:22;4.03;;;2.00;;
52542;SDS011;38449;52.696;6.186;2022-08-01T04:23:52;6.57;;;2.38;;
52542;SDS011;38449;52.696;6.186;2022-08-01T04:26:22;6.28;;;2.15;;
52542;SDS011;38449;52.696;6.186;2022-08-01T04:28:50;5.82;;;2.65;;
52542;SDS011;38449;52.696;6.186;2022-08-01T04:31:19;9.25;;;2.40;;
52542;SDS011;38449;52.696;6.186;2022-08-01T04:33:47;4.72;;;1.95;;
52542;SDS011;38449;52.696;6.186;2022-08-01T04:36:15;4.55;;;2.25;;
52542;SDS011;38449;52.696;6.186;2022-08-01T04:38:45;4.30;;;2.45;;
52542;SDS011;38449;52.696;6.186;2022-08-01T04:41:13;5.22;;;2.65;;
52542;SDS011;38449;52.696;6.186;2022-08-01T04:43:40;6.78;;;3.08;;
52542;SDS011;38449;52.696;6.186;2022-08-01T04:46:06;5.28;;;2.17;;
52542;SDS011;38449;52.696;6.186;2022-08-01T04:48:34;6.50;;;2.80;;
52542;SDS011;38449;52.696;6.186;2022-08-01T04:51:02;4.80;;;2.38;;
52542;SDS011;38449;52.696;6.186;2022-08-01T04:53:28;8.18;;;2.33;;
52542;SDS011;38449;52.696;6.186;2022-08-01T04:55:57;8.75;;;3.10;;
52542;SDS011;38449;52.696;6.186;2022-08-01T04:58:23;6.57;;;2.50;;
52542;SDS011;38449;52.696;6.186;2022-08-01T05:00:48;7.80;;;2.58;;
52542;SDS011;38449;52.696;6.186;2022-08-01T05:03:14;6.25;;;2.60;;
52542;SDS011;38449;52.696;6.186;2022-08-01T05:05:40;7.30;;;2.83;;
52542;SDS011;38449;52.696;6.186;2022-08-01T05:08:06;5.05;;;2.80;;
52542;SDS011;38449;52.696;6.186;2022-08-01T05:10:31;5.93;;;2.60;;
52542;SDS011;38449;52.696;6.186;2022-08-01T05:12:57;9.50;;;2.78;;
52542;SDS011;38449;52.696;6.186;2022-08-01T05:15:23;5.05;;;2.55;;
52542;SDS011;38449;52.696;6.186;2022-08-01T05:17:49;12.93;;;3.15;;
52542;SDS011;38449;52.696;6.186;2022-08-01T05:20:14;9.35;;;3.05;;
52542;SDS011;38449;52.696;6.186;2022-08-01T05:22:40;6.40;;;2.60;;
52542;SDS011;38449;52.696;6.186;2022-08-01T05:25:06;10.77;;;3.25;;
52542;SDS011;38449;52.696;6.186;2022-08-01T05:27:32;11.23;;;3.30;;
52542;SDS011;38449;52.696;6.186;2022-08-01T05:30:02;10.70;;;3.22;;
52542;SDS011;38449;52.696;6.186;2022-08-01T05:32:28;8.93;;;3.22;;
52542;SDS011;38449;52.696;6.186;2022-08-01T05:34:55;10.10;;;3.33;;
52542;SDS011;38449;52.696;6.186;2022-08-01T05:37:20;12.98;;;4.18;;
52542;SDS011;38449;52.696;6.186;2022-08-01T05:39:46;14.82;;;4.07;;
52542;SDS011;38449;52.696;6.186;2022-08-01T05:42:11;12.55;;;3.38;;
52542;SDS011;38449;52.696;6.186;2022-08-01T05:44:37;15.35;;;3.63;;
52542;SDS011;38449;52.696;6.186;2022-08-01T05:47:03;10.88;;;3.50;;
52542;SDS011;38449;52.696;6.186;2022-08-01T05:49:28;14.10;;;4.05;;
52542;SDS011;38449;52.696;6.186;2022-08-01T05:51:54;14.23;;;3.22;;
52542;SDS011;38449;52.696;6.186;2022-08-01T05:54:20;10.30;;;3.25;;
52542;SDS011;38449;52.696;6.186;2022-08-01T05:56:45;13.00;;;2.97;;
52542;SDS011;38449;52.696;6.186;2022-08-01T05:59:11;12.18;;;3.30;;
52542;SDS011;38449;52.696;6.186;2022-08-01T06:01:38;10.70;;;3.20;;
52542;SDS011;38449;52.696;6.186;2022-08-01T06:04:03;20.50;;;4.03;;
52542;SDS011;38449;52.696;6.186;2022-08-01T06:06:29;11.77;;;3.15;;
52542;SDS011;38449;52.696;6.186;2022-08-01T06:08:54;15.13;;;3.53;;
52542;SDS011;38449;52.696;6.186;2022-08-01T06:11:20;10.70;;;2.95;;
52542;SDS011;38449;52.696;6.186;2022-08-01T06:13:46;11.05;;;2.60;;
52542;SDS011;38449;52.696;6.186;2022-08-01T06:16:11;12.15;;;3.33;;
52542;SDS011;38449;52.696;6.186;2022-08-01T06:18:37;8.93;;;3.15;;
52542;SDS011;38449;52.696;6.186;2022-08-01T06:21:03;14.32;;;3.00;;
52542;SDS011;38449;52.696;6.186;2022-08-01T06:23:28;14.27;;;3.33;;
52542;SDS011;38449;52.696;6.186;2022-08-01T06:25:54;11.43;;;3.28;;
52542;SDS011;38449;52.696;6.186;2022-08-01T06:28:20;13.30;;;3.30;;
52542;SDS011;38449;52.696;6.186;2022-08-01T06:30:47;18.38;;;3.50;;
52542;SDS011;38449;52.696;6.186;2022-08-01T06:33:12;15.25;;;3.33;;
52542;SDS011;38449;52.696;6.186;2022-08-01T06:35:39;11.85;;;3.03;;
52542;SDS011;38449;52.696;6.186;2022-08-01T06:38:05;15.95;;;3.50;;
52542;SDS011;38449;52.696;6.186;2022-08-01T06:40:31;16.13;;;3.25;;
52542;SDS011;38449;52.696;6.186;2022-08-01T06:42:56;13.65;;;3.15;;
52542;SDS011;38449;52.696;6.186;2022-08-01T06:45:22;14.25;;;3.35;;
52542;SDS011;38449;52.696;6.186;2022-08-01T06:47:49;12.82;;;3.90;;
52542;SDS011;38449;52.696;6.186;2022-08-01T06:50:15;10.63;;;3.13;;
52542;SDS011;38449;52.696;6.186;2022-08-01T06:52:41;12.30;;;3.17;;
52542;SDS011;38449;52.696;6.186;2022-08-01T06:55:07;13.60;;;2.95;;
52542;SDS011;38449;52.696;6.186;2022-08-01T06:57:33;12.52;;;2.95;;
52542;SDS011;38449;52.696;6.186;2022-08-01T07:00:06;9.85;;;3.13;;
52542;SDS011;38449;52.696;6.186;2022-08-01T07:02:36;14.52;;;3.15;;
52542;SDS011;38449;52.696;6.186;2022-08-01T07:05:02;14.90;;;4.15;;
52542;SDS011;38449;52.696;6.186;2022-08-01T07:07:29;12.05;;;2.78;;
52542;SDS011;38449;52.696;6.186;2022-08-01T07:09:55;11.63;;;2.80;;
52542;SDS011;38449;52.696;6.186;2022-08-01T07:12:21;14.20;;;3.03;;
52542;SDS011;38449;52.696;6.186;2022-08-01T07:14:47;13.48;;;3.35;;
52542;SDS011;38449;52.696;6.186;2022-08-01T07:17:13;18.88;;;3.10;;
52542;SDS011;38449;52.696;6.186;2022-08-01T07:19:38;12.10;;;3.13;;
52542;SDS011;38449;52.696;6.186;2022-08-01T07:22:04;13.00;;;3.25;;
52542;SDS011;38449;52.696;6.186;2022-08-01T07:24:29;11.52;;;2.70;;
52542;SDS011;38449;52.696;6.186;2022-08-01T07:26:56;15.15;;;2.92;;
52542;SDS011;38449;52.696;6.186;2022-08-01T07:29:25;14.55;;;3.30;;
52542;SDS011;38449;52.696;6.186;2022-08-01T07:31:52;10.88;;;2.65;;
52542;SDS011;38449;52.696;6.186;2022-08-01T07:34:19;11.82;;;3.42;;
52542;SDS011;38449;52.696;6.186;2022-08-01T07:36:45;12.55;;;2.97;;
52542;SDS011;38449;52.696;6.186;2022-08-01T07:39:10;12.95;;;3.30;;
52542;SDS011;38449;52.696;6.186;2022-08-01T07:41:36;10.02;;;2.97;;
52542;SDS011;38449;52.696;6.186;2022-08-01T07:44:02;13.80;;;3.10;;
52542;SDS011;38449;52.696;6.186;2022-08-01T07:46:27;12.32;;;2.70;;
52542;SDS011;38449;52.696;6.186;2022-08-01T07:48:55;17.92;;;3.47;;
52542;SDS011;38449;52.696;6.186;2022-08-01T07:51:21;12.48;;;2.92;;
52542;SDS011;38449;52.696;6.186;2022-08-01T07:53:47;10.18;;;2.60;;
52542;SDS011;38449;52.696;6.186;2022-08-01T07:56:12;14.68;;;3.25;;
52542;SDS011;38449;52.696;6.186;2022-08-01T07:58:38;13.02;;;2.80;;
52542;SDS011;38449;52.696;6.186;2022-08-01T08:01:03;13.60;;;2.83;;
52542;SDS011;38449;52.696;6.186;2022-08-01T08:03:29;11.43;;;2.95;;
52542;SDS011;38449;52.696;6.186;2022-08-01T08:05:55;13.23;;;3.38;;
52542;SDS011;38449;52.696;6.186;2022-08-01T08:08:21;19.90;;;3.55;;
52542;SDS011;38449;52.696;6.186;2022-08-01T08:10:47;14.98;;;3.40;;
52542;SDS011;38449;52.696;6.186;2022-08-01T08:13:12;12.73;;;2.42;;
52542;SDS011;38449;52.696;6.186;2022-08-01T08:15:38;12.80;;;3.30;;
52542;SDS011;38449;52.696;6.186;2022-08-01T08:18:04;12.75;;;2.95;;
52542;SDS011;38449;52.696;6.186;2022-08-01T08:20:30;12.75;;;2.90;;
52542;SDS011;38449;52.696;6.186;2022-08-01T08:22:55;13.30;;;2.97;;
52542;SDS011;38449;52.696;6.186;2022-08-01T08:25:23;12.98;;;2.92;;
52542;SDS011;38449;52.696;6.186;2022-08-01T08:27:50;16.45;;;2.97;;
52542;SDS011;38449;52.696;6.186;2022-08-01T08:30:16;10.25;;;3.17;;
52542;SDS011;38449;52.696;6.186;2022-08-01T08:32:42;12.15;;;2.63;;
52542;SDS011;38449;52.696;6.186;2022-08-01T08:35:08;15.35;;;2.70;;
52542;SDS011;38449;52.696;6.186;2022-08-01T08:37:35;20.25;;;3.22;;
52542;SDS011;38449;52.696;6.186;2022-08-01T08:40:02;15.45;;;3.00;;
52542;SDS011;38449;52.696;6.186;2022-08-01T08:42:29;13.02;;;2.90;;
52542;SDS011;38449;52.696;6.186;2022-08-01T08:44:55;12.82;;;2.47;;
52542;SDS011;38449;52.696;6.186;2022-08-01T08:47:21;10.05;;;2.75;;
52542;SDS011;38449;52.696;6.186;2022-08-01T08:49:49;10.30;;;2.70;;
52542;SDS011;38449;52.696;6.186;2022-08-01T08:52:18;11.25;;;2.72;;
52542;SDS011;38449;52.696;6.186;2022-08-01T08:54:45;12.55;;;2.80;;
52542;SDS011;38449;52.696;6.186;2022-08-01T08:57:13;13.75;;;2.80;;
52542;SDS011;38449;52.696;6.186;2022-08-01T08:59:39;9.88;;;2.67;;
52542;SDS011;38449;52.696;6.186;2022-08-01T09:02:07;12.68;;;2.72;;
52542;SDS011;38449;52.696;6.186;2022-08-01T09:04:35;13.50;;;3.13;;
52542;SDS011;38449;52.696;6.186;2022-08-01T09:07:03;9.23;;;2.58;;
52542;SDS011;38449;52.696;6.186;2022-08-01T09:09:30;8.73;;;2.45;;
52542;SDS011;38449;52.696;6.186;2022-08-01T09:11:56;10.43;;;2.58;;
52542;SDS011;38449;52.696;6.186;2022-08-01T09:14:23;8.35;;;2.53;;
52542;SDS011;38449;52.696;6.186;2022-08-01T09:17:04;7.63;;;1.90;;
52542;SDS011;38449;52.696;6.186;2022-08-01T09:19:39;9.88;;;2.40;;
52542;SDS011;38449;52.696;6.186;2022-08-01T09:24:37;11.80;;;2.55;;
52542;SDS011;38449;52.696;6.186;2022-08-01T09:27:20;11.55;;;2.47;;
52542;SDS011;38449;52.696;6.186;2022-08-01T09:32:15;10.45;;;2.50;;
52542;SDS011;38449;52.696;6.186;2022-08-01T09:34:40;12.32;;;2.65;;
52542;SDS011;38449;52.696;6.186;2022-08-01T09:37:06;9.48;;;2.35;;
52542;SDS011;38449;52.696;6.186;2022-08-01T09:39:33;11.10;;;2.78;;
52542;SDS011;38449;52.696;6.186;2022-08-01T09:44:51;9.48;;;2.30;;
52542;SDS011;38449;52.696;6.186;2022-08-01T09:47:18;11.10;;;2.55;;
52542;SDS011;38449;52.696;6.186;2022-08-01T09:49:45;8.55;;;2.30;;
52542;SDS011;38449;52.696;6.186;2022-08-01T09:52:24;8.55;;;2.30;;
52542;SDS011;38449;52.696;6.186;2022-08-01T09:54:53;10.00;;;2.22;;
52542;SDS011;38449;52.696;6.186;2022-08-01T09:57:19;7.50;;;2.30;;
52542;SDS011;38449;52.696;6.186;2022-08-01T09:59:46;9.80;;;2.35;;
52542;SDS011;38449;52.696;6.186;2022-08-01T10:02:26;7.57;;;2.33;;
52542;SDS011;38449;52.696;6.186;2022-08-01T10:04:54;8.77;;;2.58;;
52542;SDS011;38449;52.696;6.186;2022-08-01T10:07:20;8.02;;;2.10;;
52542;SDS011;38449;52.696;6.186;2022-08-01T10:09:47;11.30;;;2.42;;
52542;SDS011;38449;52.696;6.186;2022-08-01T10:12:14;9.15;;;2.83;;
52542;SDS011;38449;52.696;6.186;2022-08-01T10:14:42;6.40;;;2.20;;
52542;SDS011;38449;52.696;6.186;2022-08-01T10:17:11;6.03;;;1.90;;
52542;SDS011;38449;52.696;6.186;2022-08-01T10:19:42;5.95;;;1.80;;
52542;SDS011;38449;52.696;6.186;2022-08-01T10:22:09;13.35;;;2.65;;
52542;SDS011;38449;52.696;6.186;2022-08-01T10:24:39;8.07;;;2.33;;
52542;SDS011;38449;52.696;6.186;2022-08-01T10:27:07;9.10;;;2.20;;
52542;SDS011;38449;52.696;6.186;2022-08-01T10:29:46;6.05;;;1.90;;
52542;SDS011;38449;52.696;6.186;2022-08-01T10:32:16;7.60;;;2.10;;
52542;SDS011;38449;52.696;6.186;2022-08-01T10:34:43;10.68;;;2.33;;
52542;SDS011;38449;52.696;6.186;2022-08-01T10:37:09;6.90;;;3.00;;
52542;SDS011;38449;52.696;6.186;2022-08-01T10:39:35;5.68;;;1.73;;
52542;SDS011;38449;52.696;6.186;2022-08-01T10:42:02;5.57;;;1.85;;
52542;SDS011;38449;52.696;6.186;2022-08-01T10:44:29;7.38;;;1.83;;
52542;SDS011;38449;52.696;6.186;2022-08-01T10:47:07;5.25;;;1.60;;
52542;SDS011;38449;52.696;6.186;2022-08-01T10:49:38;7.88;;;1.80;;
52542;SDS011;38449;52.696;6.186;2022-08-01T10:52:16;6.95;;;1.50;;
52542;SDS011;38449;52.696;6.186;2022-08-01T10:54:42;6.32;;;1.83;;
52542;SDS011;38449;52.696;6.186;2022-08-01T10:57:08;7.25;;;1.77;;
52542;SDS011;38449;52.696;6.186;2022-08-01T10:59:35;6.97;;;1.50;;
52542;SDS011;38449;52.696;6.186;2022-08-01T11:02:11;6.95;;;1.70;;
52542;SDS011;38449;52.696;6.186;2022-08-01T11:05:04;5.93;;;1.90;;
52542;SDS011;38449;52.696;6.186;2022-08-01T11:07:42;5.90;;;1.70;;
52542;SDS011;38449;52.696;6.186;2022-08-01T11:13:14;5.30;;;1.83;;
52542;SDS011;38449;52.696;6.186;2022-08-01T11:16:26;9.00;;;2.95;;
52542;SDS011;38449;52.696;6.186;2022-08-01T11:18:56;5.53;;;1.60;;
52542;SDS011;38449;52.696;6.186;2022-08-01T11:21:28;6.50;;;1.63;;
52542;SDS011;38449;52.696;6.186;2022-08-01T11:29:43;8.40;;;2.05;;
52542;SDS011;38449;52.696;6.186;2022-08-01T11:32:24;7.55;;;1.98;;
52542;SDS011;38449;52.696;6.186;2022-08-01T11:34:52;6.20;;;2.00;;
52542;SDS011;38449;52.696;6.186;2022-08-01T11:37:27;6.40;;;1.95;;
52542;SDS011;38449;52.696;6.186;2022-08-01T11:42:41;5.13;;;1.73;;
52542;SDS011;38449;52.696;6.186;2022-08-01T11:45:06;4.80;;;1.70;;
52542;SDS011;38449;52.696;6.186;2022-08-01T11:47:50;5.25;;;1.92;;
52542;SDS011;38449;52.696;6.186;2022-08-01T11:53:00;7.00;;;1.70;;
52542;SDS011;38449;52.696;6.186;2022-08-01T11:55:27;8.35;;;2.17;;
52542;SDS011;38449;52.696;6.186;2022-08-01T11:58:01;4.60;;;1.40;;
52542;SDS011;38449;52.696;6.186;2022-08-01T12:00:28;4.50;;;1.70;;
52542;SDS011;38449;52.696;6.186;2022-08-01T12:02:59;4.93;;;1.60;;
52542;SDS011;38449;52.696;6.186;2022-08-01T12:05:28;5.10;;;1.40;;
52542;SDS011;38449;52.696;6.186;2022-08-01T12:07:55;6.55;;;1.70;;
52542;SDS011;38449;52.696;6.186;2022-08-01T12:10:25;5.40;;;1.45;;
52542;SDS011;38449;52.696;6.186;2022-08-01T12:12:59;5.25;;;1.48;;
52542;SDS011;38449;52.696;6.186;2022-08-01T12:15:29;4.55;;;1.27;;
52542;SDS011;38449;52.696;6.186;2022-08-01T12:17:57;5.38;;;1.67;;
52542;SDS011;38449;52.696;6.186;2022-08-01T12:20:24;6.28;;;1.75;;
52542;SDS011;38449;52.696;6.186;2022-08-01T12:22:55;3.25;;;1.50;;
52542;SDS011;38449;52.696;6.186;2022-08-01T12:25:21;3.60;;;1.35;;
52542;SDS011;38449;52.696;6.186;2022-08-01T12:27:48;5.38;;;1.50;;
52542;SDS011;38449;52.696;6.186;2022-08-01T12:30:16;4.97;;;1.60;;
52542;SDS011;38449;52.696;6.186;2022-08-01T12:32:46;5.55;;;1.55;;
52542;SDS011;38449;52.696;6.186;2022-08-01T12:35:13;6.85;;;1.50;;
52542;SDS011;38449;52.696;6.186;2022-08-01T12:37:44;4.50;;;1.52;;
52542;SDS011;38449;52.696;6.186;2022-08-01T12:40:11;5.70;;;1.50;;
52542;SDS011;38449;52.696;6.186;2022-08-01T12:42:43;6.13;;;1.60;;
52542;SDS011;38449;52.696;6.186;2022-08-01T12:45:14;5.13;;;1.60;;
52542;SDS011;38449;52.696;6.186;2022-08-01T12:47:42;3.47;;;1.45;;
52542;SDS011;38449;52.696;6.186;2022-08-01T12:50:13;7.00;;;1.40;;
52542;SDS011;38449;52.696;6.186;2022-08-01T12:52:40;4.65;;;1.20;;
52542;SDS011;38449;52.696;6.186;2022-08-01T12:55:16;6.15;;;1.40;;
52542;SDS011;38449;52.696;6.186;2022-08-01T12:57:43;6.38;;;1.60;;
52542;SDS011;38449;52.696;6.186;2022-08-01T13:02:47;4.45;;;1.20;;
52542;SDS011;38449;52.696;6.186;2022-08-01T13:05:13;7.13;;;1.60;;
52542;SDS011;38449;52.696;6.186;2022-08-01T13:07:44;4.22;;;1.40;;
52542;SDS011;38449;52.696;6.186;2022-08-01T13:10:10;6.13;;;1.85;;
52542;SDS011;38449;52.696;6.186;2022-08-01T13:12:38;4.38;;;1.38;;
52542;SDS011;38449;52.696;6.186;2022-08-01T13:15:19;9.27;;;1.60;;
52542;SDS011;38449;52.696;6.186;2022-08-01T13:17:48;9.85;;;1.60;;
52542;SDS011;38449;52.696;6.186;2022-08-01T13:22:53;5.85;;;1.80;;
52542;SDS011;38449;52.696;6.186;2022-08-01T13:25:19;7.13;;;1.73;;
52542;SDS011;38449;52.696;6.186;2022-08-01T13:27:45;8.10;;;1.58;;
52542;SDS011;38449;52.696;6.186;2022-08-01T13:30:17;7.07;;;1.55;;
52542;SDS011;38449;52.696;6.186;2022-08-01T13:33:00;8.05;;;1.50;;
52542;SDS011;38449;52.696;6.186;2022-08-01T13:35:26;6.68;;;1.40;;
52542;SDS011;38449;52.696;6.186;2022-08-01T13:37:52;5.63;;;1.30;;
52542;SDS011;38449;52.696;6.186;2022-08-01T13:40:25;3.25;;;1.20;;
52542;SDS011;38449;52.696;6.186;2022-08-01T13:42:53;6.28;;;1.67;;
52542;SDS011;38449;52.696;6.186;2022-08-01T13:45:21;3.80;;;1.20;;
52542;SDS011;38449;52.696;6.186;2022-08-01T13:47:47;4.40;;;1.30;;
52542;SDS011;38449;52.696;6.186;2022-08-01T13:50:13;5.57;;;1.42;;
52542;SDS011;38449;52.696;6.186;2022-08-01T13:52:39;4.28;;;1.23;;
52542;SDS011;38449;52.696;6.186;2022-08-01T13:55:06;7.20;;;1.63;;
52542;SDS011;38449;52.696;6.186;2022-08-01T13:57:32;8.18;;;1.45;;
52542;SDS011;38449;52.696;6.186;2022-08-01T13:59:57;4.07;;;1.30;;
52542;SDS011;38449;52.696;6.186;2022-08-01T14:02:26;5.28;;;1.55;;
52542;SDS011;38449;52.696;6.186;2022-08-01T14:04:53;7.32;;;1.58;;
52542;SDS011;38449;52.696;6.186;2022-08-01T14:07:20;6.45;;;1.55;;
52542;SDS011;38449;52.696;6.186;2022-08-01T14:09:46;3.63;;;1.27;;
52542;SDS011;38449;52.696;6.186;2022-08-01T14:12:12;5.10;;;1.40;;
52542;SDS011;38449;52.696;6.186;2022-08-01T14:14:37;5.60;;;1.25;;
52542;SDS011;38449;52.696;6.186;2022-08-01T14:17:03;4.18;;;1.30;;
52542;SDS011;38449;52.696;6.186;2022-08-01T14:19:29;7.82;;;1.77;;
52542;SDS011;38449;52.696;6.186;2022-08-01T14:21:56;3.55;;;1.17;;
52542;SDS011;38449;52.696;6.186;2022-08-01T14:24:22;7.20;;;1.60;;
52542;SDS011;38449;52.696;6.186;2022-08-01T14:26:48;5.68;;;1.60;;
52542;SDS011;38449;52.696;6.186;2022-08-01T14:29:14;5.97;;;1.42;;
52542;SDS011;38449;52.696;6.186;2022-08-01T14:31:39;5.32;;;1.50;;
52542;SDS011;38449;52.696;6.186;2022-08-01T14:34:05;5.07;;;1.42;;
52542;SDS011;38449;52.696;6.186;2022-08-01T14:36:31;4.53;;;1.15;;
52542;SDS011;38449;52.696;6.186;2022-08-01T14:38:57;5.60;;;1.55;;
52542;SDS011;38449;52.696;6.186;2022-08-01T14:41:24;6.43;;;1.45;;
52542;SDS011;38449;52.696;6.186;2022-08-01T14:43:51;5.55;;;1.45;;
52542;SDS011;38449;52.696;6.186;2022-08-01T14:46:16;4.97;;;1.30;;
52542;SDS011;38449;52.696;6.186;2022-08-01T14:48:43;6.63;;;1.60;;
52542;SDS011;38449;52.696;6.186;2022-08-01T14:51:09;5.72;;;1.30;;
52542;SDS011;38449;52.696;6.186;2022-08-01T14:53:35;7.10;;;1.40;;
52542;SDS011;38449;52.696;6.186;2022-08-01T14:56:02;6.25;;;1.70;;
52542;SDS011;38449;52.696;6.186;2022-08-01T14:58:28;5.20;;;1.60;;
52542;SDS011;38449;52.696;6.186;2022-08-01T15:00:54;4.97;;;1.38;;
52542;SDS011;38449;52.696;6.186;2022-08-01T15:03:21;8.40;;;1.58;;
52542;SDS011;38449;52.696;6.186;2022-08-01T15:05:47;5.95;;;1.50;;
52542;SDS011;38449;52.696;6.186;2022-08-01T15:08:12;6.10;;;1.70;;
52542;SDS011;38449;52.696;6.186;2022-08-01T15:10:41;6.68;;;1.50;;
52542;SDS011;38449;52.696;6.186;2022-08-01T15:13:07;5.15;;;1.45;;
52542;SDS011;38449;52.696;6.186;2022-08-01T15:15:32;7.53;;;1.90;;
52542;SDS011;38449;52.696;6.186;2022-08-01T15:17:58;6.13;;;1.73;;
52542;SDS011;38449;52.696;6.186;2022-08-01T15:20:24;8.15;;;1.40;;
52542;SDS011;38449;52.696;6.186;2022-08-01T15:22:51;5.53;;;1.52;;
52542;SDS011;38449;52.696;6.186;2022-08-01T15:25:18;6.15;;;1.40;;